< < Back
Terminal Aerodrome Forecast


Current Version              Previous Versions:   1  2  3  4  5  6  7  8  9  

Terminal Aerodrome Forecast

620
FTUS42 KMLB 300500
TAFDAB
TAF
KDAB 300536Z 3006/3106 00000KT P6SM SCT250
     FM301400 29010KT P6SM BKN040 BKN250
     FM301800 32014G22KT P6SM BKN040
     FM302000 33013G21KT P6SM SCT040 BKN250
     FM310100 36005KT P6SM SCT250=

Latest METAR

408
SAUS80 KWBC 300900
MTRDAB
METAR KDAB 300853Z 28004KT 10SM CLR 09/07 A3020 RMK AO2 SLP224 T00940067
55003


USA.gov is the U.S. government's official web portal to all federal, state and local government web resources and services.